Friday, July 20, 2018, 12:42 PM EDT
Back to Local

KMFD, Lahm Municipal Airport

Location: Mansfield, OH, United States Lat: 40.817
Local Time: 12:42 PM EDT (16:42 GMT) Lon: -82.517
Time Zone: US/Eastern Elev: 1295 ft

Show me the last for .
Show Decoded

2018-07-20 12:09 METAR KMFD 201609Z 17008KT 10SM FEW042 BKN100 BKN120 22/20 A2995 RMK AO2 LTG
                 DSNT NW-E RAE07 P0000 T02220200 =
2018-07-20 12:00 METAR KMFD 201600Z 18008KT 6SM VCTS -RA BR FEW022 BKN050 OVC100 22/21 A2995 RMK
                 AO2 LTG DSNT ALQDS P0000 T02220211 =
2018-07-20 11:52 METAR KMFD 201552Z AUTO 20003KT 2 1/2SM VCTS RA BR SCT022 BKN055 OVC100 22/20
                 A2994 RMK AO2 LTG DSNT ALQDS RAB39 SLP130 P0004 T02220200 =
2018-07-20 11:49 METAR KMFD 201549Z AUTO 19007KT 2 1/2SM VCTS +RA BR SCT022 BKN034 OVC090 22/20
                 A2994 RMK AO2 LTG DSNT ALQDS RAB39 P0002 =
2018-07-20 11:40 METAR KMFD 201540Z AUTO 19013KT 9SM VCTS -RA BKN022 BKN035 OVC044 23/19 A2995
                 RMK AO2 LTG DSNT W RAB39 P0000 T02330194 =
2018-07-20 11:13 METAR KMFD 201513Z AUTO 19013KT 10SM BKN023 25/19 A2995 RMK AO2 LTG DSNT S-W
                 T02500194 =
2018-07-20 10:52 METAR KMFD 201452Z AUTO 18011KT 10SM FEW021 26/20 A2994 RMK AO2 LTG DSNT S AND
                 SW SLP129 T02610200 58003 =
2018-07-20 10:42 METAR KMFD 201442Z AUTO 20012KT 10SM SCT021 26/19 A2994 RMK AO2 T02560194 =
2018-07-20 10:28 METAR KMFD 201428Z AUTO 18012KT 10SM BKN021 26/19 A2995 RMK AO2 T02560194 =
2018-07-20 09:52 METAR KMFD 201352Z AUTO 16011KT 10SM FEW042 24/18 A2995 RMK AO2 SLP131 T02440183
                 =
2018-07-20 08:52 METAR KMFD 201252Z AUTO 16013KT 10SM CLR 23/18 A2995 RMK AO2 SLP133 T02280178 =
2018-07-20 07:52 METAR KMFD 201152Z AUTO 15010KT 10SM CLR 22/18 A2995 RMK AO2 SLP132 T02170178
                 10217 20189 53001 =
2018-07-20 06:52 METAR KMFD 201052Z AUTO 15008KT 10SM CLR 20/17 A2995 RMK AO2 SLP131 T02000172 $
                 =
2018-07-20 05:52 METAR KMFD 200952Z AUTO 15008KT 10SM FEW050 20/17 A2995 RMK AO2 SLP130 T02000167
                 $ =
2018-07-20 04:52 METAR KMFD 200852Z AUTO 15008KT 10SM CLR 19/16 A2995 RMK AO2 SLP131 T01940156
                 58007 $ =
2018-07-20 03:52 METAR KMFD 200752Z AUTO 15006KT 10SM SCT055 19/14 A2996 RMK AO2 SLP136 T01940144
                 $ =
2018-07-20 02:52 METAR KMFD 200652Z AUTO 16005KT 10SM SCT055 19/14 A2996 RMK AO2 SLP136 T01940144
                 $ =
2018-07-20 01:52 METAR KMFD 200552Z AUTO 16005KT 10SM FEW055 20/14 A2997 RMK AO2 SLP139 T02000144
                 10261 20189 58014 $ =
2018-07-20 00:52 METAR KMFD 200452Z AUTO 15005KT 10SM CLR 19/14 A2999 RMK AO2 SLP147 T01890144
                 402830128 $ =
2018-07-19 23:52 METAR KMFD 200352Z AUTO 14005KT 10SM CLR 20/14 A3000 RMK AO2 SLP152 T02000144 $
                 =
2018-07-19 22:52 METAR KMFD 200252Z 14004KT 10SM CLR 21/14 A3001 RMK AO2 SLP155 T02110144 53002 $
                 =
2018-07-19 21:52 METAR KMFD 200152Z 13005KT 10SM CLR 22/14 A3001 RMK AO2 SLP153 T02170144 $ =
2018-07-19 20:52 METAR KMFD 200052Z 12004KT 10SM CLR 23/14 A3000 RMK AO2 SLP151 T02330144 $ =
2018-07-19 19:52 METAR KMFD 192352Z 14008KT 10SM CLR 26/13 A3001 RMK AO2 SLP152 T02610133 10283
                 20261 58009 $ =
2018-07-19 18:52 METAR KMFD 192252Z 14010KT 10SM CLR 27/13 A3001 RMK AO2 SLP157 T02670133 $ =
2018-07-19 17:52 METAR KMFD 192152Z 12006KT 10SM CLR 28/14 A3003 RMK AO2 SLP163 T02780139 $ =
2018-07-19 16:52 METAR KMFD 192052Z VRB04KT 10SM CLR 28/12 A3003 RMK AO2 SLP164 T02780122 56014 $
                 =
2018-07-19 15:52 METAR KMFD 191952Z 14009KT 10SM CLR 28/13 A3005 RMK AO2 SLP168 T02780133 $ =
2018-07-19 14:52 METAR KMFD 191852Z 12009KT 10SM CLR 27/13 A3006 RMK AO2 SLP171 T02670133 $ =
2018-07-19 13:52 METAR KMFD 191752Z 15009KT 10SM CLR 27/14 A3008 RMK AO2 SLP178 T02720144 10272
                 20178 58013 $ =
2018-07-19 12:52 METAR KMFD 191652Z 10006KT 10SM CLR 26/14 A3009 RMK AO2 SLP183 T02610144 $ =

Support USWX by starting your Amazon purchase here.